createdAt,value
2023-01-26T00:00:10.807Z,29.70
2023-01-26T00:01:10.512Z,32.20
2023-01-26T00:02:10.502Z,30.60
2023-01-26T00:03:10.515Z,28.30
2023-01-26T00:04:10.605Z,29.20
2023-01-26T00:05:10.485Z,25.40
2023-01-26T00:06:10.484Z,25.50
2023-01-26T00:07:10.472Z,25.30
2023-01-26T00:08:10.463Z,25.90
2023-01-26T00:09:10.502Z,26.40
2023-01-26T00:10:10.770Z,29.10
2023-01-26T00:11:10.438Z,29.60
2023-01-26T00:12:10.462Z,29.10
2023-01-26T00:13:11.424Z,29.30
2023-01-26T00:14:10.459Z,29.70
2023-01-26T00:15:10.427Z,29.60
2023-01-26T00:16:10.471Z,29.20
2023-01-26T00:17:10.394Z,27.90
2023-01-26T00:18:10.384Z,26.90
2023-01-26T00:19:10.384Z,29.40
2023-01-26T00:20:10.689Z,27.70
2023-01-26T00:21:10.375Z,28.60
2023-01-26T00:22:10.367Z,30.30
2023-01-26T00:23:10.343Z,29.80
2023-01-26T00:24:11.386Z,31.20
2023-01-26T00:25:10.402Z,28.70
2023-01-26T00:26:10.334Z,28.90
2023-01-26T00:27:10.333Z,25.60
2023-01-26T00:28:10.327Z,25.50
2023-01-26T00:29:10.313Z,24.40
2023-01-26T00:30:10.801Z,25.50
2023-01-26T00:31:10.353Z,25.50
2023-01-26T00:32:10.300Z,25.10
2023-01-26T00:33:10.281Z,23.30
2023-01-26T00:34:10.281Z,22.10
2023-01-26T00:35:10.307Z,21.30
2023-01-26T00:36:10.269Z,20.80
2023-01-26T00:37:10.263Z,22.10
2023-01-26T00:38:10.251Z,21.10
2023-01-26T00:39:10.248Z,21.90
2023-01-26T00:40:10.588Z,21.10
2023-01-26T00:41:10.244Z,23.30
2023-01-26T00:42:10.229Z,23.40
2023-01-26T00:43:10.212Z,22.50
2023-01-26T00:44:10.223Z,21.90
2023-01-26T00:45:10.243Z,21.40
2023-01-26T00:46:10.196Z,22.00
2023-01-26T00:47:10.203Z,19.70
2023-01-26T00:48:10.189Z,20.70
2023-01-26T00:49:10.178Z,19.90
2023-01-26T00:50:10.772Z,21.00
2023-01-26T00:51:10.161Z,21.30
2023-01-26T00:52:10.156Z,20.10
2023-01-26T00:53:10.142Z,17.40
2023-01-26T00:54:10.150Z,19.50
2023-01-26T00:55:10.169Z,18.20
2023-01-26T00:56:10.126Z,19.70
2023-01-26T00:57:10.135Z,21.30
2023-01-26T00:58:10.128Z,20.60
2023-01-26T00:59:10.108Z,21.80
2023-01-26T01:00:10.407Z,20.30
2023-01-26T01:01:10.190Z,20.40
2023-01-26T01:02:10.144Z,20.40
2023-01-26T01:03:10.079Z,20.80
2023-01-26T01:04:10.074Z,20.40
2023-01-26T01:05:10.100Z,19.10
2023-01-26T01:06:10.063Z,18.70
2023-01-26T01:07:10.052Z,18.90
2023-01-26T01:08:10.049Z,17.40
2023-01-26T01:09:10.058Z,17.30
2023-01-26T01:10:10.565Z,17.40
2023-01-26T01:11:10.035Z,17.80
2023-01-26T01:12:10.031Z,19.30
2023-01-26T01:13:10.042Z,19.40
2023-01-26T01:14:10.006Z,19.80
2023-01-26T01:15:10.020Z,20.20
2023-01-26T01:16:10.016Z,20.40
2023-01-26T01:17:09.983Z,19.60
2023-01-26T01:18:09.976Z,19.10
2023-01-26T01:19:09.971Z,17.70
2023-01-26T01:20:11.408Z,18.40
2023-01-26T01:21:09.955Z,17.70
2023-01-26T01:22:09.948Z,19.70
2023-01-26T01:23:09.962Z,21.90
2023-01-26T01:24:10.113Z,20.20
2023-01-26T01:25:09.957Z,19.40
2023-01-26T01:26:09.921Z,19.40
2023-01-26T01:27:09.923Z,20.40
2023-01-26T01:28:09.912Z,19.80
2023-01-26T01:29:09.898Z,21.10
2023-01-26T01:30:10.504Z,17.50
2023-01-26T01:31:09.961Z,17.80
2023-01-26T01:32:09.882Z,18.20
2023-01-26T01:33:09.869Z,17.70
2023-01-26T01:34:09.859Z,16.20
2023-01-26T01:35:09.877Z,18.10
2023-01-26T01:36:09.852Z,15.90
2023-01-26T01:37:09.846Z,17.00
2023-01-26T01:38:09.834Z,16.30
2023-01-26T01:39:09.827Z,15.30
2023-01-26T01:40:10.140Z,17.70
2023-01-26T01:41:09.812Z,16.80
2023-01-26T01:42:09.801Z,16.00
2023-01-26T01:43:09.792Z,16.60
2023-01-26T01:44:09.800Z,14.10
2023-01-26T01:45:09.818Z,15.00
2023-01-26T01:46:09.792Z,13.70
2023-01-26T01:47:09.764Z,14.40
2023-01-26T01:48:09.776Z,15.80
2023-01-26T01:49:09.762Z,14.50
2023-01-26T01:50:10.072Z,12.70
2023-01-26T01:51:09.740Z,11.70
2023-01-26T01:52:09.741Z,12.60
2023-01-26T01:53:09.734Z,13.30
2023-01-26T01:54:09.750Z,12.70
2023-01-26T01:55:09.745Z,13.80
2023-01-26T01:56:09.710Z,13.20
2023-01-26T01:57:09.723Z,14.10
2023-01-26T01:58:09.689Z,14.60
2023-01-26T01:59:09.687Z,13.20
2023-01-26T02:00:10.121Z,12.20
2023-01-26T02:01:09.692Z,13.10
2023-01-26T02:02:09.701Z,16.00
2023-01-26T02:03:09.654Z,12.70
2023-01-26T02:04:10.654Z,12.30
2023-01-26T02:05:09.673Z,12.20
2023-01-26T02:06:09.635Z,12.50
2023-01-26T02:07:09.623Z,12.70
2023-01-26T02:08:09.645Z,13.30
2023-01-26T02:09:09.611Z,12.90
2023-01-26T02:10:09.963Z,12.30
2023-01-26T02:11:09.601Z,12.80
2023-01-26T02:12:09.590Z,13.20
2023-01-26T02:13:09.633Z,13.20
2023-01-26T02:14:09.575Z,13.80
2023-01-26T02:15:09.611Z,18.40
2023-01-26T02:16:09.576Z,19.10
2023-01-26T02:17:09.553Z,11.60
2023-01-26T02:18:09.547Z,10.20
2023-01-26T02:19:09.541Z,10.80
2023-01-26T02:20:10.049Z,10.40
2023-01-26T02:21:09.546Z,10.20
2023-01-26T02:22:09.549Z,10.30
2023-01-26T02:23:09.523Z,10.20
2023-01-26T02:24:09.556Z,9.00
2023-01-26T02:25:10.543Z,9.80
2023-01-26T02:26:09.496Z,9.80
2023-01-26T02:27:09.480Z,10.40
2023-01-26T02:28:09.479Z,11.00
2023-01-26T02:29:09.529Z,9.70
2023-01-26T02:30:09.808Z,9.90
2023-01-26T02:31:09.530Z,10.00
2023-01-26T02:32:09.447Z,10.10
2023-01-26T02:33:09.444Z,9.30
2023-01-26T02:34:09.450Z,11.40
2023-01-26T02:35:09.526Z,9.80
2023-01-26T02:36:09.424Z,10.40
2023-01-26T02:37:09.416Z,10.60
2023-01-26T02:38:09.423Z,10.00
2023-01-26T02:39:09.394Z,9.70
2023-01-26T02:40:09.757Z,10.80
2023-01-26T02:41:09.383Z,10.80
2023-01-26T02:42:09.388Z,10.00
2023-01-26T02:43:09.397Z,9.30
2023-01-26T02:44:09.357Z,8.70
2023-01-26T02:45:09.356Z,8.60
2023-01-26T02:46:09.421Z,8.60
2023-01-26T02:47:09.335Z,10.80
2023-01-26T02:48:09.339Z,13.60
2023-01-26T02:49:09.329Z,21.80
2023-01-26T02:50:09.853Z,16.20
2023-01-26T02:51:09.422Z,12.10
2023-01-26T02:52:09.309Z,12.20
2023-01-26T02:53:09.310Z,9.40
2023-01-26T02:54:09.289Z,16.10
2023-01-26T02:55:09.280Z,17.10
2023-01-26T02:56:09.302Z,20.00
2023-01-26T02:57:09.286Z,15.10
2023-01-26T02:58:09.263Z,14.00
2023-01-26T02:59:09.249Z,16.80
2023-01-26T03:00:09.547Z,15.40
2023-01-26T03:01:09.291Z,13.20
2023-01-26T03:02:09.287Z,12.10
2023-01-26T03:03:09.227Z,14.80
2023-01-26T03:04:09.248Z,12.60
2023-01-26T03:05:09.227Z,10.70
2023-01-26T03:06:09.222Z,8.90
2023-01-26T03:07:09.209Z,8.40
2023-01-26T03:08:09.191Z,8.50
2023-01-26T03:09:09.180Z,8.30
2023-01-26T03:10:09.527Z,9.40
2023-01-26T03:11:09.240Z,8.40
2023-01-26T03:12:09.158Z,8.50
2023-01-26T03:13:09.141Z,8.20
2023-01-26T03:14:09.147Z,9.10
2023-01-26T03:15:09.146Z,8.40
2023-01-26T03:16:09.195Z,9.70
2023-01-26T03:17:09.127Z,9.90
2023-01-26T03:18:09.112Z,8.90
2023-01-26T03:19:09.101Z,8.70
2023-01-26T03:20:09.340Z,8.50
2023-01-26T03:21:09.126Z,9.00
2023-01-26T03:22:09.089Z,8.40
2023-01-26T03:23:09.085Z,9.40
2023-01-26T03:24:09.269Z,13.60
2023-01-26T03:25:09.078Z,13.70
2023-01-26T03:26:09.091Z,9.90
2023-01-26T03:27:09.071Z,9.80
2023-01-26T03:28:09.048Z,10.50
2023-01-26T03:29:09.037Z,9.50
2023-01-26T03:30:09.265Z,10.20
2023-01-26T03:31:09.101Z,8.20
2023-01-26T03:32:09.018Z,8.80
2023-01-26T03:33:09.028Z,8.80
2023-01-26T03:34:09.010Z,9.10
2023-01-26T03:35:09.008Z,8.40
2023-01-26T03:36:09.023Z,8.90
2023-01-26T03:37:08.986Z,9.00
2023-01-26T03:38:08.972Z,9.30
2023-01-26T03:39:08.967Z,8.60
2023-01-26T03:40:09.306Z,9.40
2023-01-26T03:41:08.994Z,10.70
2023-01-26T03:42:08.943Z,9.50
2023-01-26T03:43:08.935Z,9.60
2023-01-26T03:44:08.945Z,10.30
2023-01-26T03:45:08.943Z,10.10
2023-01-26T03:46:08.981Z,10.70
2023-01-26T03:47:08.917Z,10.50
2023-01-26T03:48:08.939Z,10.20
2023-01-26T03:49:08.904Z,9.60
2023-01-26T03:50:09.217Z,10.50
2023-01-26T03:51:08.887Z,11.40
2023-01-26T03:52:08.917Z,11.30
2023-01-26T03:53:08.887Z,11.60
2023-01-26T03:54:08.868Z,10.90
2023-01-26T03:55:08.870Z,11.70
2023-01-26T03:56:08.871Z,12.40
2023-01-26T03:57:08.888Z,12.40
2023-01-26T03:58:08.845Z,11.50
2023-01-26T03:59:08.839Z,13.60
2023-01-26T04:00:09.089Z,10.80
2023-01-26T04:01:08.876Z,12.10
2023-01-26T04:02:08.890Z,14.10
2023-01-26T04:03:08.812Z,11.10
2023-01-26T04:04:08.827Z,12.00
2023-01-26T04:05:08.799Z,13.70
2023-01-26T04:06:16.110Z,17.10
2023-01-26T04:07:09.797Z,16.20
2023-01-26T04:08:08.783Z,15.00
2023-01-26T04:09:08.947Z,13.60
2023-01-26T04:10:08.902Z,14.40
2023-01-26T04:11:08.755Z,13.90
2023-01-26T04:12:08.773Z,13.50
2023-01-26T04:13:08.737Z,12.90
2023-01-26T04:14:08.726Z,11.70
2023-01-26T04:15:08.754Z,13.00
2023-01-26T04:16:08.754Z,13.50
2023-01-26T04:17:08.737Z,14.80
2023-01-26T04:18:08.705Z,14.30
2023-01-26T04:19:08.702Z,14.20
2023-01-26T04:20:08.919Z,12.30
2023-01-26T04:21:08.690Z,12.10
2023-01-26T04:22:08.708Z,12.30
2023-01-26T04:23:08.677Z,11.90
2023-01-26T04:24:08.697Z,12.80
2023-01-26T04:25:08.662Z,11.60
2023-01-26T04:26:08.660Z,12.40
2023-01-26T04:27:08.677Z,11.60
2023-01-26T04:28:08.630Z,12.40
2023-01-26T04:29:08.631Z,13.10
2023-01-26T04:30:08.945Z,13.70
2023-01-26T04:31:08.618Z,12.80
2023-01-26T04:32:08.632Z,12.80
2023-01-26T04:33:08.597Z,12.20
2023-01-26T04:34:08.593Z,12.40
2023-01-26T04:35:08.591Z,12.70
2023-01-26T04:36:08.598Z,12.60
2023-01-26T04:37:08.597Z,12.70
2023-01-26T04:38:08.563Z,14.20
2023-01-26T04:39:08.563Z,12.80
2023-01-26T04:40:08.703Z,13.80
2023-01-26T04:41:08.530Z,12.30
2023-01-26T04:42:09.562Z,13.40
2023-01-26T04:43:08.548Z,11.70
2023-01-26T04:44:09.554Z,12.70
2023-01-26T04:45:08.524Z,12.90
2023-01-26T04:46:08.576Z,12.40
2023-01-26T04:47:08.525Z,12.70
2023-01-26T04:48:08.493Z,12.20
2023-01-26T04:49:08.519Z,10.90
2023-01-26T04:51:41.704Z,11.60
2023-01-26T04:52:41.749Z,12.80
2023-01-26T04:53:41.717Z,12.30
2023-01-26T04:54:41.706Z,11.50
2023-01-26T04:55:41.705Z,11.30
2023-01-26T04:56:41.691Z,13.50
2023-01-26T04:57:42.852Z,12.70
2023-01-26T04:58:42.818Z,13.70
2023-01-26T04:59:42.819Z,12.10
2023-01-26T05:00:42.794Z,13.00
2023-01-26T05:01:43.795Z,12.70
2023-01-26T05:02:42.839Z,14.10
2023-01-26T05:03:42.791Z,14.80
2023-01-26T05:04:42.784Z,13.10
2023-01-26T05:05:42.771Z,13.50
2023-01-26T05:06:42.771Z,12.90
2023-01-26T05:07:42.777Z,13.60
2023-01-26T05:08:42.747Z,13.10
2023-01-26T05:09:42.761Z,12.60
2023-01-26T05:10:42.735Z,13.30
2023-01-26T05:11:42.724Z,15.60
2023-01-26T05:12:42.788Z,15.80
2023-01-26T05:13:42.741Z,17.30
2023-01-26T05:14:42.705Z,17.50
2023-01-26T05:15:42.696Z,16.80
2023-01-26T05:16:42.767Z,16.80
2023-01-26T05:17:42.712Z,18.30
2023-01-26T05:18:42.671Z,16.70
2023-01-26T05:19:42.669Z,15.70
2023-01-26T05:20:42.657Z,17.30
2023-01-26T05:21:42.659Z,17.70
2023-01-26T05:22:42.670Z,17.90
2023-01-26T05:23:42.635Z,17.20
2023-01-26T05:24:42.660Z,16.60
2023-01-26T05:25:42.625Z,17.90
2023-01-26T05:26:42.620Z,18.00
2023-01-26T05:27:42.632Z,16.70
2023-01-26T05:28:42.599Z,18.40
2023-01-26T05:29:42.607Z,16.10
2023-01-26T05:30:42.682Z,15.80
2023-01-26T05:31:42.589Z,15.50
2023-01-26T05:32:42.611Z,14.50
2023-01-26T05:33:42.567Z,15.00
2023-01-26T05:34:42.564Z,16.30
2023-01-26T05:35:42.573Z,17.10
2023-01-26T05:36:42.546Z,17.00
2023-01-26T05:37:42.563Z,17.20
2023-01-26T05:38:42.540Z,18.00
2023-01-26T05:39:42.517Z,17.60
2023-01-26T05:40:43.513Z,17.30
2023-01-26T05:41:42.512Z,17.00
2023-01-26T05:42:42.531Z,15.70
2023-01-26T05:43:42.500Z,15.80
2023-01-26T05:44:42.494Z,17.20
2023-01-26T05:45:42.673Z,16.30
2023-01-26T05:46:42.480Z,16.40
2023-01-26T05:47:42.501Z,16.80
2023-01-26T05:48:42.460Z,16.70
2023-01-26T05:49:42.516Z,16.10
2023-01-26T05:50:42.473Z,15.70
2023-01-26T05:51:42.439Z,15.50
2023-01-26T05:52:42.465Z,18.90
2023-01-26T05:53:42.428Z,17.90
2023-01-26T05:54:42.420Z,17.10
2023-01-26T05:55:42.409Z,17.60
2023-01-26T05:56:42.412Z,18.20
2023-01-26T05:57:42.447Z,18.90
2023-01-26T05:58:42.388Z,18.70
2023-01-26T05:59:42.391Z,18.30
2023-01-26T06:00:42.492Z,18.40
2023-01-26T06:01:42.381Z,18.20
2023-01-26T06:02:42.413Z,17.80
2023-01-26T06:03:42.368Z,17.30
2023-01-26T06:04:42.354Z,18.10
2023-01-26T06:05:42.344Z,19.30
2023-01-26T06:06:42.336Z,17.90
2023-01-26T06:07:42.367Z,19.40
2023-01-26T06:08:42.322Z,19.60
2023-01-26T06:09:42.320Z,18.70
2023-01-26T06:10:42.305Z,20.50
2023-01-26T06:11:42.304Z,20.70
2023-01-26T06:12:42.331Z,27.20
2023-01-26T06:13:42.288Z,26.50
2023-01-26T06:14:42.293Z,23.40
2023-01-26T06:15:42.269Z,26.80
2023-01-26T06:16:42.305Z,28.40
2023-01-26T06:17:42.309Z,27.00
2023-01-26T06:18:42.257Z,26.50
2023-01-26T06:19:42.269Z,28.80
2023-01-26T06:20:44.192Z,25.40
2023-01-26T06:21:43.233Z,25.90
2023-01-26T06:22:42.230Z,25.70
2023-01-26T06:23:42.263Z,24.50
2023-01-26T06:24:42.243Z,26.70
2023-01-26T06:25:42.212Z,26.70
2023-01-26T06:26:42.214Z,25.50
2023-01-26T06:27:42.520Z,25.70
2023-01-26T06:28:42.223Z,25.60
2023-01-26T06:29:42.178Z,27.00
2023-01-26T06:30:42.275Z,25.90
2023-01-26T06:31:42.253Z,25.40
2023-01-26T06:32:42.168Z,25.40
2023-01-26T06:33:42.175Z,24.90
2023-01-26T06:34:42.151Z,26.60
2023-01-26T06:35:42.131Z,27.60
2023-01-26T06:36:42.131Z,27.90
2023-01-26T06:37:42.127Z,28.10
2023-01-26T06:38:42.139Z,28.80
2023-01-26T06:39:42.132Z,29.00
2023-01-26T06:40:42.096Z,28.80
2023-01-26T06:41:42.092Z,30.10
2023-01-26T06:42:42.085Z,30.00
2023-01-26T06:43:42.105Z,29.10
2023-01-26T06:44:42.076Z,30.80
2023-01-26T06:45:42.067Z,30.30
2023-01-26T06:46:42.072Z,29.80
2023-01-26T06:47:42.044Z,27.70
2023-01-26T06:48:42.078Z,30.30
2023-01-26T06:49:42.052Z,29.20
2023-01-26T06:50:42.023Z,29.50
2023-01-26T06:51:42.020Z,29.30
2023-01-26T06:52:42.321Z,28.80
2023-01-26T06:53:43.031Z,30.10
2023-01-26T06:54:42.002Z,30.80
2023-01-26T06:55:41.999Z,30.00
2023-01-26T06:56:41.984Z,29.90
2023-01-26T06:57:41.991Z,30.50
2023-01-26T06:58:41.996Z,30.80
2023-01-26T06:59:41.969Z,30.70
2023-01-26T07:00:41.957Z,30.60
2023-01-26T07:01:41.945Z,31.00
2023-01-26T07:02:42.011Z,29.40
2023-01-26T07:03:42.962Z,30.60
2023-01-26T07:04:41.927Z,29.50
2023-01-26T07:05:41.929Z,28.20
2023-01-26T07:06:41.917Z,29.70
2023-01-26T07:07:41.909Z,29.70
2023-01-26T07:08:41.953Z,26.90
2023-01-26T07:09:41.918Z,28.40
2023-01-26T07:10:41.892Z,28.30
2023-01-26T07:11:41.983Z,29.40
2023-01-26T07:12:41.869Z,31.60
2023-01-26T07:13:41.895Z,29.80
2023-01-26T07:14:41.852Z,29.70
2023-01-26T07:15:41.857Z,29.70
2023-01-26T07:16:41.848Z,32.60
2023-01-26T07:17:41.849Z,32.80
2023-01-26T07:18:41.859Z,32.00
2023-01-26T07:19:41.819Z,34.70
2023-01-26T07:20:41.811Z,33.10
2023-01-26T07:21:41.822Z,30.00
2023-01-26T07:22:41.814Z,32.40
2023-01-26T07:23:41.833Z,31.70
2023-01-26T07:24:41.792Z,29.20
2023-01-26T07:25:41.810Z,28.70
2023-01-26T07:26:41.775Z,30.90
2023-01-26T07:27:41.770Z,30.00
2023-01-26T07:28:41.795Z,29.70
2023-01-26T07:29:41.757Z,29.80
2023-01-26T07:30:41.814Z,31.40
2023-01-26T07:31:41.799Z,31.50
2023-01-26T07:32:41.742Z,29.30
2023-01-26T07:33:41.759Z,29.20
2023-01-26T07:34:41.710Z,31.10
2023-01-26T07:35:41.707Z,30.50
2023-01-26T07:36:41.696Z,28.80
2023-01-26T07:37:41.700Z,29.10
2023-01-26T07:38:41.691Z,29.50
2023-01-26T07:39:41.716Z,30.10
2023-01-26T07:40:41.682Z,31.60
2023-01-26T07:41:41.664Z,30.10
2023-01-26T07:42:41.655Z,29.80
2023-01-26T07:43:41.670Z,29.90
2023-01-26T07:44:41.673Z,30.60
2023-01-26T07:45:41.639Z,28.80
2023-01-26T07:46:42.228Z,30.70
2023-01-26T07:47:41.622Z,29.60
2023-01-26T07:48:41.620Z,30.80
2023-01-26T07:49:41.633Z,29.70
2023-01-26T07:50:41.601Z,32.00
2023-01-26T07:51:41.595Z,30.20
2023-01-26T07:52:41.638Z,34.30
2023-01-26T07:53:41.580Z,36.50
2023-01-26T07:54:41.598Z,36.20
2023-01-26T07:55:41.574Z,37.20
2023-01-26T07:56:41.558Z,37.00
2023-01-26T07:57:41.560Z,35.70
2023-01-26T07:58:41.552Z,34.20
2023-01-26T07:59:41.569Z,30.80
2023-01-26T08:00:41.537Z,31.60
2023-01-26T08:01:41.550Z,32.20
2023-01-26T08:02:41.586Z,32.20
2023-01-26T08:03:41.524Z,33.00
2023-01-26T08:04:41.533Z,33.70
2023-01-26T08:05:41.535Z,34.90
2023-01-26T08:06:41.494Z,36.00
2023-01-26T08:07:41.476Z,35.80
2023-01-26T08:08:41.541Z,37.40
2023-01-26T08:09:41.499Z,37.90
2023-01-26T08:10:41.455Z,37.90
2023-01-26T08:11:41.460Z,38.10
2023-01-26T08:12:41.533Z,35.20
2023-01-26T08:13:41.446Z,36.40
2023-01-26T08:14:46.901Z,37.10
2023-01-26T08:15:43.423Z,37.20
2023-01-26T08:16:41.446Z,39.90
2023-01-26T08:17:41.409Z,39.90
2023-01-26T08:18:41.402Z,43.70
2023-01-26T08:19:41.412Z,46.10
2023-01-26T08:20:41.382Z,42.20
2023-01-26T08:21:41.403Z,41.40
2023-01-26T08:22:41.373Z,40.80
2023-01-26T08:23:41.370Z,37.60
2023-01-26T08:24:41.384Z,39.90
2023-01-26T08:25:41.358Z,38.70
2023-01-26T08:26:41.340Z,38.70
2023-01-26T08:27:41.344Z,37.20
2023-01-26T08:28:41.336Z,36.60
2023-01-26T08:29:41.343Z,36.50
2023-01-26T08:30:41.320Z,38.40
2023-01-26T08:31:41.432Z,38.20
2023-01-26T08:32:41.297Z,37.80
2023-01-26T08:33:41.888Z,37.50
2023-01-26T08:34:41.312Z,40.20
2023-01-26T08:35:41.273Z,37.80
2023-01-26T08:36:41.267Z,39.00
2023-01-26T08:37:41.257Z,39.00
2023-01-26T08:38:41.248Z,38.00
2023-01-26T08:39:41.263Z,38.90
2023-01-26T08:40:41.228Z,38.60
2023-01-26T08:41:41.252Z,39.00
2023-01-26T08:42:41.228Z,38.30
2023-01-26T08:43:41.209Z,39.50
2023-01-26T08:44:41.236Z,40.00
2023-01-26T08:45:41.236Z,39.30
2023-01-26T08:46:41.190Z,40.80
2023-01-26T08:47:41.179Z,41.10
2023-01-26T08:48:41.188Z,42.30
2023-01-26T08:49:41.202Z,41.40
2023-01-26T08:50:41.160Z,42.10
2023-01-26T08:51:41.164Z,40.40
2023-01-26T08:52:41.140Z,41.80
2023-01-26T08:53:41.140Z,42.30
2023-01-26T08:54:41.154Z,40.30
2023-01-26T08:55:41.157Z,47.70
2023-01-26T08:56:41.118Z,43.90
2023-01-26T08:57:41.107Z,46.30
2023-01-26T08:58:41.119Z,50.00
2023-01-26T08:59:41.099Z,49.00
2023-01-26T09:00:41.120Z,44.60
2023-01-26T09:01:41.085Z,39.20
2023-01-26T09:02:41.158Z,41.80
2023-01-26T09:03:41.075Z,40.90
2023-01-26T09:04:41.072Z,39.10
2023-01-26T09:05:41.082Z,37.30
2023-01-26T09:06:41.051Z,38.50
2023-01-26T09:07:41.047Z,39.20
2023-01-26T09:08:41.035Z,38.80
2023-01-26T09:09:41.044Z,41.50
2023-01-26T09:10:41.042Z,40.80
2023-01-26T09:11:41.023Z,42.90
2023-01-26T09:12:41.327Z,41.20
2023-01-26T09:13:42.033Z,44.00
2023-01-26T09:14:41.056Z,42.60
2023-01-26T09:15:41.012Z,42.00
2023-01-26T09:16:41.036Z,45.60
2023-01-26T09:17:40.978Z,50.70
2023-01-26T09:18:40.973Z,49.10
2023-01-26T09:19:40.958Z,40.20
2023-01-26T09:20:40.979Z,42.20
2023-01-26T09:21:40.954Z,43.40
2023-01-26T09:22:40.946Z,42.80
2023-01-26T09:23:40.932Z,45.80
2023-01-26T09:24:40.916Z,50.10
2023-01-26T09:25:41.942Z,43.50
2023-01-26T09:26:40.915Z,44.30
2023-01-26T09:27:40.968Z,46.60
2023-01-26T09:28:40.898Z,43.00
2023-01-26T09:29:40.918Z,46.40
2023-01-26T09:30:40.997Z,53.30
2023-01-26T09:31:40.934Z,53.00
2023-01-26T09:32:40.870Z,48.70
2023-01-26T09:33:44.028Z,46.50
2023-01-26T09:34:40.866Z,46.10
2023-01-26T09:35:40.877Z,47.90
2023-01-26T09:36:41.584Z,47.30
2023-01-26T09:37:41.834Z,47.60
2023-01-26T09:38:40.825Z,47.90
2023-01-26T09:39:40.834Z,45.60
2023-01-26T09:40:40.850Z,47.80
2023-01-26T09:41:40.809Z,65.40
2023-01-26T09:42:40.798Z,51.00
2023-01-26T09:43:40.811Z,49.10
2023-01-26T09:44:40.795Z,49.60
2023-01-26T09:45:40.823Z,44.80
2023-01-26T09:46:40.773Z,46.40
2023-01-26T09:47:40.761Z,46.20
2023-01-26T09:48:40.762Z,57.70
2023-01-26T09:49:40.767Z,51.00
2023-01-26T09:50:40.796Z,49.30
2023-01-26T09:51:40.731Z,78.00
2023-01-26T09:52:40.724Z,43.90
2023-01-26T09:53:40.723Z,46.30
2023-01-26T09:54:40.715Z,44.80
2023-01-26T09:55:40.716Z,47.30
2023-01-26T09:56:40.740Z,44.00
2023-01-26T09:57:40.690Z,42.10
2023-01-26T09:58:40.684Z,41.40
2023-01-26T09:59:40.756Z,42.90
2023-01-26T10:00:40.665Z,49.00
2023-01-26T10:01:40.744Z,41.50
2023-01-26T10:02:40.722Z,41.70
2023-01-26T10:03:40.643Z,39.40
2023-01-26T10:04:40.637Z,43.00
2023-01-26T10:05:40.630Z,54.30
2023-01-26T10:06:40.649Z,46.20
2023-01-26T10:07:40.615Z,48.60
2023-01-26T10:08:40.624Z,48.30
2023-01-26T10:09:40.925Z,51.20
2023-01-26T10:10:40.625Z,43.70
2023-01-26T10:11:40.613Z,40.40
2023-01-26T10:12:41.593Z,46.10
2023-01-26T10:13:40.578Z,42.90
2023-01-26T10:14:40.611Z,47.30
2023-01-26T10:15:40.583Z,76.90
2023-01-26T10:16:40.576Z,49.10
2023-01-26T10:17:40.553Z,45.10
2023-01-26T10:18:40.542Z,44.10
2023-01-26T10:19:40.562Z,44.90
2023-01-26T10:20:40.688Z,46.30
2023-01-26T10:21:40.603Z,46.80
2023-01-26T10:22:40.531Z,47.50
2023-01-26T10:23:40.510Z,43.10
2023-01-26T10:24:40.499Z,43.90
2023-01-26T10:25:40.506Z,45.40
2023-01-26T10:26:40.519Z,43.90
2023-01-26T10:27:40.489Z,45.20
2023-01-26T10:28:40.455Z,48.60
2023-01-26T10:29:41.467Z,46.20
2023-01-26T10:30:40.609Z,44.40
2023-01-26T10:31:40.514Z,48.70
2023-01-26T10:32:40.444Z,44.90
2023-01-26T10:33:40.430Z,46.80
2023-01-26T10:34:40.427Z,46.90
2023-01-26T10:35:40.426Z,47.90
2023-01-26T10:36:40.509Z,49.40
2023-01-26T10:37:40.412Z,49.60
2023-01-26T10:38:40.413Z,45.90
2023-01-26T10:39:40.385Z,48.00
2023-01-26T10:40:41.382Z,46.50
2023-01-26T10:41:40.407Z,50.00
2023-01-26T10:42:40.393Z,45.70
2023-01-26T10:43:40.368Z,51.00
2023-01-26T10:44:40.360Z,50.20
2023-01-26T10:45:40.351Z,49.30
2023-01-26T10:46:40.396Z,48.10
2023-01-26T10:47:40.366Z,48.30
2023-01-26T10:48:40.337Z,50.90
2023-01-26T10:49:40.325Z,50.90
2023-01-26T10:52:13.893Z,49.30
2023-01-26T10:53:13.897Z,51.90
2023-01-26T10:54:13.891Z,51.60
2023-01-26T10:55:14.205Z,50.10
2023-01-26T10:56:13.885Z,53.00
2023-01-26T10:57:13.889Z,52.70
2023-01-26T10:58:13.861Z,50.20
2023-01-26T10:59:13.851Z,49.60
2023-01-26T11:00:13.865Z,53.60
2023-01-26T11:01:15.016Z,52.30
2023-01-26T11:02:15.041Z,53.00
2023-01-26T11:03:14.982Z,51.10
2023-01-26T11:04:14.955Z,52.60
2023-01-26T11:05:15.291Z,52.40
2023-01-26T11:06:14.942Z,53.00
2023-01-26T11:07:14.981Z,54.80
2023-01-26T11:08:14.960Z,52.20
2023-01-26T11:09:14.937Z,51.00
2023-01-26T11:10:14.910Z,53.10
2023-01-26T11:11:14.947Z,52.60
2023-01-26T11:12:14.951Z,52.00
2023-01-26T11:13:14.893Z,54.10
2023-01-26T11:14:14.902Z,51.20
2023-01-26T11:15:14.909Z,50.00
2023-01-26T11:16:14.935Z,49.90
2023-01-26T11:17:14.948Z,49.40
2023-01-26T11:18:14.868Z,49.30
2023-01-26T11:19:14.896Z,52.60
2023-01-26T11:20:15.024Z,51.40
2023-01-26T11:21:14.848Z,52.50
2023-01-26T11:22:14.904Z,52.80
2023-01-26T11:23:14.857Z,48.20
2023-01-26T11:24:14.862Z,50.40
2023-01-26T11:25:14.900Z,51.00
2023-01-26T11:26:14.879Z,52.80
2023-01-26T11:27:14.905Z,52.10
2023-01-26T11:28:14.821Z,52.30
2023-01-26T11:29:14.801Z,50.60
2023-01-26T11:30:14.791Z,48.90
2023-01-26T11:31:14.917Z,46.40
2023-01-26T11:32:14.807Z,51.60
2023-01-26T11:33:14.779Z,50.80
2023-01-26T11:34:14.785Z,49.40
2023-01-26T11:35:14.951Z,51.80
2023-01-26T11:36:14.835Z,49.90
2023-01-26T11:37:14.795Z,49.40
2023-01-26T11:38:14.767Z,48.80
2023-01-26T11:39:14.847Z,49.40
2023-01-26T11:40:14.846Z,48.60
2023-01-26T11:41:14.723Z,46.80
2023-01-26T11:42:14.751Z,48.30
2023-01-26T11:43:14.702Z,47.50
2023-01-26T11:44:14.703Z,48.60
2023-01-26T11:45:14.677Z,51.20
2023-01-26T11:46:14.670Z,52.30
2023-01-26T11:47:14.692Z,48.60
2023-01-26T11:48:14.692Z,48.40
2023-01-26T11:49:14.669Z,51.00
2023-01-26T11:50:14.671Z,50.00
2023-01-26T11:51:14.657Z,50.70
2023-01-26T11:52:14.695Z,52.40
2023-01-26T11:53:14.620Z,50.40
2023-01-26T11:54:14.652Z,51.70
2023-01-26T11:55:14.594Z,47.90
2023-01-26T11:56:14.602Z,48.80
2023-01-26T11:57:14.719Z,50.50
2023-01-26T11:58:14.584Z,51.70
2023-01-26T11:59:14.566Z,52.00
2023-01-26T12:00:28.682Z,54.00
2023-01-26T12:01:16.694Z,49.20
2023-01-26T12:02:14.657Z,52.90
2023-01-26T12:03:14.567Z,51.20
2023-01-26T12:04:14.531Z,52.00
2023-01-26T12:05:14.527Z,51.30
2023-01-26T12:06:14.523Z,52.40
2023-01-26T12:07:14.658Z,52.40
2023-01-26T12:08:14.527Z,50.70
2023-01-26T12:09:14.484Z,51.60
2023-01-26T12:10:14.490Z,53.10
2023-01-26T12:11:14.461Z,52.60
2023-01-26T12:12:14.473Z,49.90
2023-01-26T12:13:14.539Z,51.40
2023-01-26T12:14:14.471Z,55.30
2023-01-26T12:15:14.454Z,51.20
2023-01-26T12:16:14.557Z,48.90
2023-01-26T12:17:18.361Z,52.00
2023-01-26T12:18:15.452Z,57.50
2023-01-26T12:19:14.427Z,56.10
2023-01-26T12:20:14.436Z,57.60
2023-01-26T12:21:14.416Z,55.20
2023-01-26T12:22:14.430Z,53.80
2023-01-26T12:23:14.429Z,58.00
2023-01-26T12:24:39.191Z,56.40
2023-01-26T12:25:19.877Z,53.10
2023-01-26T12:26:15.431Z,56.80
2023-01-26T12:27:14.474Z,52.80
2023-01-26T12:28:14.375Z,58.80
2023-01-26T12:29:14.328Z,60.30
2023-01-26T12:30:14.379Z,59.60
2023-01-26T12:31:14.372Z,54.50
2023-01-26T12:32:14.361Z,59.40
2023-01-26T12:33:14.373Z,58.70
2023-01-26T12:34:14.374Z,54.70
2023-01-26T12:35:14.863Z,54.00
2023-01-26T12:36:14.315Z,64.90
2023-01-26T12:37:14.337Z,61.10
2023-01-26T12:38:18.273Z,62.30
2023-01-26T12:39:15.319Z,133.20
2023-01-26T12:40:14.278Z,101.80
2023-01-26T12:41:14.286Z,60.60
2023-01-26T12:42:14.261Z,58.10
2023-01-26T12:43:14.317Z,65.50
2023-01-26T12:44:14.237Z,59.10
2023-01-26T12:45:15.054Z,56.80
2023-01-26T12:46:14.274Z,57.00
2023-01-26T12:47:14.236Z,61.70
2023-01-26T12:48:14.237Z,62.00
2023-01-26T12:49:14.233Z,60.40
2023-01-26T12:50:14.798Z,57.10
2023-01-26T12:51:14.186Z,81.10
2023-01-26T12:52:14.197Z,70.30
2023-01-26T12:53:15.214Z,61.00
2023-01-26T12:54:14.201Z,60.80
2023-01-26T12:55:14.447Z,62.30
2023-01-26T12:56:14.154Z,63.80
2023-01-26T12:57:14.460Z,61.00